Terminal Aerodrome Forecast
Issued by NWS Albuquerque, NM

Home | Current Version | Previous Version | Text Only | Print | Product List | Glossary On
Versions: 1 2 3 4 5 6 7 8 9 10 11 12 13
000
FTUS45 KABQ 301124
TAFABQ
TAF
KABQ 301124Z 3012/3112 36007KT P6SM FEW060 SCT140
     FM301700 23006KT P6SM FEW080 SCT150
     FM302100 22012G20KT P6SM SCT080 SCT130
     FM310200 21008KT P6SM BKN120
     FM310400 11008KT P6SM BKN100=

USA.gov is the U.S. government's official web portal to all federal, state and local government web resources and services.